Time;durP1;ratioP1;P1;durP2;ratioP2;P2;SDS_P1;SDS_P2;PMS_P1;PMS_P2;Temp;Humidity;BMP_temperature;BMP_pressure;BME280_temperature;BME280_humidity;BME280_pressure;Samples;Min_cycle;Max_cycle;Signal;HPM_P1;HPM_P2
2022/01/02 00:00:51;;;;;;;10.63;5.85;;;11.10;99.90;;;;;;5068625;28;20154;-56
2022/01/02 00:03:22;;;;;;;9.80;6.25;;;11.10;99.90;;;;;;5071198;28;20192;-56
2022/01/02 00:05:52;;;;;;;9.88;6.60;;;11.10;99.90;;;;;;5068755;28;20048;-55
2022/01/02 00:08:18;;;;;;;6.28;5.63;;;11.10;99.90;;;;;;5075924;28;20056;-56
2022/01/02 00:10:58;;;;;;;8.07;6.40;;;11.10;99.90;;;;;;5073152;28;20071;-56
2022/01/02 00:13:28;;;;;;;10.30;6.63;;;11.10;99.90;;;;;;5068624;28;20052;-54
2022/01/02 00:15:56;;;;;;;12.35;6.10;;;11.10;99.90;;;;;;5077971;28;20051;-55
2022/01/02 00:18:26;;;;;;;8.93;6.28;;;11.10;99.90;;;;;;5072598;28;20044;-54
2022/01/02 00:20:52;;;;;;;7.13;6.22;;;11.10;99.90;;;;;;5071449;28;20037;-55
2022/01/02 00:23:24;;;;;;;9.15;6.43;;;11.00;99.90;;;;;;5075260;28;20398;-55
2022/01/02 00:25:54;;;;;;;11.23;6.60;;;11.00;99.90;;;;;;5072483;28;20045;-55
2022/01/02 00:28:19;;;;;;;8.75;6.70;;;11.00;99.90;;;;;;5075606;28;20713;-55
2022/01/02 00:30:46;;;;;;;8.57;6.18;;;11.00;99.90;;;;;;5073256;28;20658;-56
2022/01/02 00:33:12;;;;;;;13.57;6.57;;;11.00;99.90;;;;;;5076050;28;20180;-56
2022/01/02 00:35:38;;;;;;;9.25;6.45;;;11.00;99.90;;;;;;5076602;28;20080;-56
2022/01/02 00:38:05;;;;;;;8.10;6.43;;;10.90;99.90;;;;;;5077645;28;20036;-56
2022/01/02 00:40:34;;;;;;;11.02;7.05;;;10.90;99.90;;;;;;5071708;28;20131;-53
2022/01/02 00:43:04;;;;;;;9.25;6.63;;;10.90;99.90;;;;;;5075895;28;20036;-54
2022/01/02 00:45:36;;;;;;;10.93;6.93;;;10.90;99.90;;;;;;5080161;28;20061;-57
2022/01/02 00:48:14;;;;;;;9.57;6.85;;;10.90;99.90;;;;;;5075362;28;20508;-55
2022/01/02 00:50:49;;;;;;;8.82;6.60;;;10.90;99.90;;;;;;5079400;28;20133;-56
2022/01/02 00:53:18;;;;;;;11.57;6.60;;;10.90;99.90;;;;;;5088012;28;20033;-56
2022/01/02 00:55:46;;;;;;;8.68;6.30;;;10.90;99.90;;;;;;5086399;28;20048;-56
2022/01/02 00:58:16;;;;;;;9.23;6.35;;;10.90;99.90;;;;;;5086353;28;20113;-55
2022/01/02 01:00:48;;;;;;;12.55;6.80;;;10.90;99.90;;;;;;5083302;28;20039;-54
2022/01/02 01:03:20;;;;;;;12.35;6.38;;;10.90;99.90;;;;;;5082590;28;20037;-54
2022/01/02 01:05:47;;;;;;;11.35;6.55;;;10.90;99.90;;;;;;5072233;28;20078;-56
2022/01/02 01:08:12;;;;;;;9.93;6.38;;;10.80;99.90;;;;;;5081647;28;20048;-56
2022/01/02 01:10:40;;;;;;;11.40;6.22;;;10.90;99.90;;;;;;5075158;28;20040;-56
2022/01/02 01:13:08;;;;;;;9.73;6.43;;;10.90;99.90;;;;;;5079769;28;20064;-55
2022/01/02 01:15:34;;;;;;;11.77;7.03;;;10.90;99.90;;;;;;5071657;28;20041;-56
2022/01/02 01:18:02;;;;;;;10.65;6.28;;;10.90;99.90;;;;;;5072821;28;20093;-56
2022/01/02 01:20:35;;;;;;;11.85;6.50;;;10.90;99.90;;;;;;5070429;28;20053;-54
2022/01/02 01:23:00;;;;;;;12.25;6.65;;;10.80;99.90;;;;;;5078567;28;20029;-54
2022/01/02 01:25:26;;;;;;;10.88;6.78;;;10.80;99.90;;;;;;5074910;28;20101;-55
2022/01/02 01:27:53;;;;;;;9.80;6.22;;;10.80;99.90;;;;;;5074799;28;20123;-54
2022/01/02 01:30:22;;;;;;;10.57;6.50;;;10.80;99.90;;;;;;5074748;28;20040;-54
2022/01/02 01:32:47;;;;;;;10.95;6.47;;;10.80;99.90;;;;;;5071924;28;20065;-55
2022/01/02 01:35:14;;;;;;;11.98;7.57;;;10.80;99.90;;;;;;5077080;28;20058;-55
2022/01/02 01:37:40;;;;;;;9.77;6.85;;;10.80;99.90;;;;;;5065469;28;20359;-55
2022/01/02 01:40:08;;;;;;;8.27;6.38;;;10.80;99.90;;;;;;5071086;28;20274;-55
2022/01/02 01:42:40;;;;;;;10.57;7.15;;;10.80;99.90;;;;;;5077161;28;20389;-54
2022/01/02 01:47:42;;;;;;;11.73;6.93;;;10.80;99.90;;;;;;5065124;28;20382;-54
2022/01/02 01:50:08;;;;;;;12.02;6.95;;;10.80;99.90;;;;;;5075692;28;20366;-55
2022/01/02 01:52:34;;;;;;;14.02;7.40;;;10.80;99.90;;;;;;5075221;28;20090;-56
2022/01/02 01:55:00;;;;;;;13.95;7.15;;;10.80;99.90;;;;;;5066359;28;20502;-57
2022/01/02 01:57:25;;;;;;;9.75;6.97;;;10.80;99.90;;;;;;5074403;28;20062;-56
2022/01/02 01:59:51;;;;;;;11.15;7.00;;;10.80;99.90;;;;;;5066648;28;20562;-56
2022/01/02 02:02:17;;;;;;;9.00;6.95;;;10.80;99.90;;;;;;5076832;28;20052;-55
2022/01/02 02:04:43;;;;;;;15.40;7.55;;;10.70;99.90;;;;;;5069107;28;20383;-56
2022/01/02 02:07:09;;;;;;;12.48;7.35;;;10.80;99.90;;;;;;5064201;28;20044;-55
2022/01/02 02:12:19;;;;;;;12.23;7.05;;;10.80;99.90;;;;;;5074570;28;20433;-55
2022/01/02 02:14:45;;;;;;;12.05;6.85;;;10.80;99.90;;;;;;5064968;28;20036;-56
2022/01/02 02:17:11;;;;;;;8.18;7.03;;;10.80;99.90;;;;;;5063209;28;20037;-57
2022/01/02 02:19:37;;;;;;;10.60;6.88;;;10.80;99.90;;;;;;5076322;28;20049;-55
2022/01/02 02:22:03;;;;;;;13.23;7.40;;;10.80;99.90;;;;;;5075154;28;20116;-56
2022/01/02 02:24:29;;;;;;;10.73;6.95;;;10.80;99.90;;;;;;5071020;28;20052;-57
2022/01/02 02:26:56;;;;;;;11.73;7.47;;;10.80;99.90;;;;;;5070804;28;20045;-56
2022/01/02 02:29:21;;;;;;;10.20;6.97;;;10.80;99.90;;;;;;5067733;28;20045;-55
2022/01/02 02:31:47;;;;;;;11.40;7.25;;;10.80;99.90;;;;;;5071311;28;20041;-56
2022/01/02 02:34:12;;;;;;;9.77;6.60;;;10.80;99.90;;;;;;5076638;28;20037;-56
2022/01/02 02:36:38;;;;;;;13.45;7.80;;;10.80;99.90;;;;;;5079018;28;20135;-55
2022/01/02 02:39:04;;;;;;;13.40;7.38;;;10.80;99.90;;;;;;5076909;28;20044;-56
2022/01/02 02:41:34;;;;;;;12.95;6.82;;;10.70;99.90;;;;;;5076373;28;20040;-56
2022/01/02 02:44:06;;;;;;;12.90;7.20;;;10.70;99.90;;;;;;5075929;28;20047;-55
2022/01/02 02:49:16;;;;;;;9.75;7.05;;;10.60;99.90;;;;;;5070353;28;20051;-58
2022/01/02 02:51:56;;;;;;;10.88;7.25;;;10.60;99.90;;;;;;5073344;28;20119;-56
2022/01/02 02:54:25;;;;;;;10.55;7.35;;;10.60;99.90;;;;;;5068583;28;20053;-57
2022/01/02 02:56:56;;;;;;;11.85;7.30;;;10.60;99.90;;;;;;5071137;28;20100;-56
2022/01/02 02:59:29;;;;;;;12.40;7.35;;;10.70;99.90;;;;;;5062657;28;20045;-56
2022/01/02 03:01:56;;;;;;;10.18;6.88;;;10.70;99.90;;;;;;5073001;28;20049;-56
2022/01/02 03:04:22;;;;;;;11.25;7.30;;;10.70;99.90;;;;;;5071150;28;20048;-54
2022/01/02 03:06:48;;;;;;;12.65;7.15;;;10.60;99.90;;;;;;5067921;28;20060;-56
2022/01/02 03:09:14;;;;;;;11.25;7.07;;;10.60;99.90;;;;;;5074554;28;20135;-56
2022/01/02 03:11:41;;;;;;;12.85;7.18;;;10.60;99.90;;;;;;5071305;28;20083;-56
2022/01/02 03:14:10;;;;;;;11.88;7.53;;;10.60;99.90;;;;;;5072024;28;20048;-56
2022/01/02 03:16:36;;;;;;;12.13;7.00;;;10.60;99.90;;;;;;5075987;28;20067;-56
2022/01/02 03:19:02;;;;;;;12.73;7.00;;;10.60;99.90;;;;;;5075105;28;20071;-56
2022/01/02 03:21:28;;;;;;;13.65;7.32;;;10.60;99.90;;;;;;5076962;28;20099;-55
2022/01/02 03:23:54;;;;;;;11.00;6.88;;;10.60;99.90;;;;;;5074367;28;20481;-56
2022/01/02 03:26:20;;;;;;;14.48;7.05;;;10.60;99.90;;;;;;5068346;28;20387;-56
2022/01/02 03:28:46;;;;;;;11.75;6.80;;;10.60;99.90;;;;;;5070266;28;20040;-55
2022/01/02 03:31:11;;;;;;;10.27;7.38;;;10.70;99.90;;;;;;5074401;28;20282;-54
2022/01/02 03:33:37;;;;;;;11.68;7.05;;;10.70;99.90;;;;;;5073157;28;20040;-56
2022/01/02 03:36:04;;;;;;;12.63;7.57;;;10.70;99.90;;;;;;5072797;28;20037;-56
2022/01/02 03:38:30;;;;;;;13.50;6.72;;;10.60;99.90;;;;;;5078248;28;20394;-55
2022/01/02 03:40:55;;;;;;;10.45;6.80;;;10.60;99.90;;;;;;5075932;28;20074;-56
2022/01/02 03:43:21;;;;;;;14.55;7.00;;;10.70;99.90;;;;;;5063939;28;20115;-56
2022/01/02 03:45:47;;;;;;;14.38;7.78;;;10.60;99.90;;;;;;5072003;28;21426;-55
2022/01/02 03:48:12;;;;;;;13.65;7.40;;;10.60;99.90;;;;;;5076565;28;20067;-55
2022/01/02 03:50:38;;;;;;;11.38;7.32;;;10.60;99.90;;;;;;5078922;28;20047;-57
2022/01/02 03:53:04;;;;;;;12.02;6.65;;;10.60;99.90;;;;;;5077283;28;20045;-55
2022/01/02 03:55:30;;;;;;;13.52;7.53;;;10.60;99.90;;;;;;5078293;28;20036;-55
2022/01/02 03:57:56;;;;;;;12.05;7.03;;;10.60;99.90;;;;;;5062031;28;20055;-55
2022/01/02 04:00:21;;;;;;;15.48;7.10;;;10.60;99.90;;;;;;5066368;28;20049;-56
2022/01/02 04:02:47;;;;;;;15.45;7.20;;;10.60;99.90;;;;;;5074553;28;20079;-55
2022/01/02 04:05:14;;;;;;;14.18;7.63;;;10.60;99.90;;;;;;5072912;28;20033;-55
2022/01/02 04:07:40;;;;;;;14.13;6.83;;;10.60;99.90;;;;;;5074108;28;20045;-55
2022/01/02 04:10:09;;;;;;;10.60;6.38;;;10.70;99.90;;;;;;5067289;28;20286;-55
2022/01/02 04:12:36;;;;;;;11.48;6.55;;;10.70;99.90;;;;;;5078179;28;20057;-55
2022/01/02 04:15:04;;;;;;;14.60;6.78;;;10.70;99.90;;;;;;5067428;28;20371;-56
2022/01/02 04:17:31;;;;;;;16.85;7.05;;;10.70;99.90;;;;;;5073721;28;20060;-56
2022/01/02 04:19:57;;;;;;;12.73;7.30;;;10.70;99.90;;;;;;5070979;28;20045;-56
2022/01/02 04:22:22;;;;;;;12.80;6.53;;;10.70;99.90;;;;;;5062836;28;20086;-56
2022/01/02 04:24:49;;;;;;;14.82;6.50;;;10.70;99.90;;;;;;5070525;28;20079;-56
2022/01/02 04:27:17;;;;;;;10.75;6.53;;;10.70;99.90;;;;;;5071901;28;20037;-57
2022/01/02 04:29:42;;;;;;;15.98;7.00;;;10.70;99.90;;;;;;5074680;28;20036;-56
2022/01/02 04:32:08;;;;;;;13.70;6.47;;;10.80;99.90;;;;;;5070138;28;20048;-55
2022/01/02 04:34:33;;;;;;;13.98;6.40;;;10.80;99.90;;;;;;5064061;28;20412;-57
2022/01/02 04:36:59;;;;;;;13.70;6.53;;;10.80;99.90;;;;;;5069339;28;20036;-56
2022/01/02 04:39:24;;;;;;;15.57;6.20;;;10.80;99.90;;;;;;5064979;28;20049;-56
2022/01/02 04:41:50;;;;;;;12.20;6.47;;;10.80;99.90;;;;;;5066256;28;20045;-55
2022/01/02 04:44:15;;;;;;;11.25;6.35;;;10.90;99.90;;;;;;5072344;28;20123;-56
2022/01/02 04:46:41;;;;;;;13.55;6.40;;;10.90;99.90;;;;;;5069029;28;20068;-56
2022/01/02 04:49:06;;;;;;;15.20;5.85;;;10.90;99.90;;;;;;5067769;28;20044;-56
2022/01/02 04:51:32;;;;;;;15.43;6.05;;;10.90;99.90;;;;;;5063879;28;20036;-56
2022/01/02 04:53:57;;;;;;;14.32;6.65;;;10.90;99.90;;;;;;5067287;28;20076;-57
2022/01/02 04:56:23;;;;;;;17.00;6.30;;;10.90;99.90;;;;;;5070810;28;20045;-56
2022/01/02 04:58:49;;;;;;;11.20;6.28;;;10.90;99.90;;;;;;5064557;28;20524;-56
2022/01/02 05:01:16;;;;;;;13.02;5.82;;;10.90;99.90;;;;;;5067244;28;20048;-56
2022/01/02 05:03:43;;;;;;;12.43;6.30;;;11.00;99.90;;;;;;5066619;28;20117;-56
2022/01/02 05:06:09;;;;;;;14.07;5.80;;;11.00;99.90;;;;;;5065130;28;20120;-56
2022/01/02 05:08:34;;;;;;;16.55;5.75;;;11.00;99.90;;;;;;5073705;28;20069;-55
2022/01/02 05:11:00;;;;;;;13.13;5.68;;;11.00;99.90;;;;;;5065237;28;20044;-56
2022/01/02 05:13:26;;;;;;;16.73;5.72;;;11.00;99.90;;;;;;5069966;28;20479;-56
2022/01/02 05:15:51;;;;;;;14.13;5.78;;;11.00;99.90;;;;;;5064485;28;20117;-56
2022/01/02 05:18:17;;;;;;;16.17;6.05;;;11.00;99.90;;;;;;5070030;28;20049;-56
2022/01/02 05:20:46;;;;;;;14.70;5.15;;;11.10;99.90;;;;;;5063679;28;20044;-57
2022/01/02 05:23:12;;;;;;;14.93;5.75;;;11.10;99.90;;;;;;5063354;28;20056;-56
2022/01/02 05:25:38;;;;;;;13.50;5.65;;;11.10;99.90;;;;;;5065146;28;20049;-56
2022/01/02 05:28:03;;;;;;;10.55;4.82;;;11.20;99.90;;;;;;5068128;28;20123;-57
2022/01/02 05:30:29;;;;;;;15.55;5.22;;;11.20;99.90;;;;;;5065145;28;20044;-56
2022/01/02 05:32:54;;;;;;;13.35;4.72;;;11.30;99.90;;;;;;5068648;28;20037;-56
2022/01/02 05:35:20;;;;;;;14.18;5.20;;;11.30;99.90;;;;;;5071467;28;20052;-56
2022/01/02 05:37:45;;;;;;;12.13;4.32;;;11.40;99.90;;;;;;5071706;28;20091;-55
2022/01/02 05:40:11;;;;;;;15.82;4.80;;;11.40;99.90;;;;;;5060776;28;20479;-56
2022/01/02 05:42:36;;;;;;;16.63;4.93;;;11.40;99.90;;;;;;5065176;28;20044;-56
2022/01/02 05:45:02;;;;;;;13.30;4.20;;;11.50;99.90;;;;;;5071789;28;20111;-55
2022/01/02 05:47:28;;;;;;;11.75;4.22;;;11.50;99.90;;;;;;5066737;28;20060;-55
2022/01/02 05:49:53;;;;;;;11.38;4.40;;;11.60;99.90;;;;;;5061080;28;21191;-56
2022/01/02 05:52:19;;;;;;;13.48;4.18;;;11.60;99.90;;;;;;5064337;28;20037;-56
2022/01/02 05:54:45;;;;;;;15.25;4.43;;;11.70;99.90;;;;;;5070064;28;20502;-56
2022/01/02 05:57:10;;;;;;;10.57;3.60;;;11.70;99.90;;;;;;5069962;28;20148;-57
2022/01/02 05:59:37;;;;;;;10.85;4.05;;;11.80;99.90;;;;;;5070805;28;20120;-56
2022/01/02 06:02:03;;;;;;;14.75;4.53;;;11.80;99.90;;;;;;5068801;28;20317;-55
2022/01/02 06:04:28;;;;;;;10.55;4.97;;;11.80;99.90;;;;;;5072969;28;20073;-54
2022/01/02 06:06:54;;;;;;;10.90;4.40;;;11.80;99.90;;;;;;5069031;28;20150;-54
2022/01/02 06:09:19;;;;;;;10.02;4.18;;;11.70;99.90;;;;;;5074436;28;20048;-55
2022/01/02 06:11:45;;;;;;;9.73;3.92;;;11.80;99.90;;;;;;5071328;28;20413;-55
2022/01/02 06:14:10;;;;;;;10.68;4.10;;;11.80;99.90;;;;;;5067911;28;20052;-55
2022/01/02 06:16:36;;;;;;;8.68;3.80;;;11.80;99.90;;;;;;5070991;28;20044;-55
2022/01/02 06:19:02;;;;;;;11.88;4.47;;;11.80;99.90;;;;;;5074266;28;20075;-54
2022/01/02 06:21:27;;;;;;;13.68;4.57;;;11.80;99.90;;;;;;5066559;28;20040;-56
2022/01/02 06:23:53;;;;;;;9.52;4.85;;;11.70;99.90;;;;;;5067640;28;20040;-54
2022/01/02 06:26:18;;;;;;;15.45;4.68;;;11.70;99.90;;;;;;5074186;28;20040;-56
2022/01/02 06:28:44;;;;;;;14.27;4.30;;;11.70;99.90;;;;;;5068018;28;20040;-56
2022/01/02 06:31:09;;;;;;;9.88;4.25;;;11.70;99.90;;;;;;5067626;28;20044;-56
2022/01/02 06:33:35;;;;;;;10.68;4.85;;;11.60;99.90;;;;;;5065747;28;20048;-56
2022/01/02 06:36:01;;;;;;;9.13;4.10;;;11.60;99.90;;;;;;5075012;28;20033;-55
2022/01/02 06:38:27;;;;;;;9.93;4.43;;;11.60;99.90;;;;;;5067688;28;20048;-55
2022/01/02 06:40:52;;;;;;;9.73;4.63;;;11.70;99.90;;;;;;5072536;28;20468;-56
2022/01/02 06:43:18;;;;;;;10.38;4.07;;;11.60;99.90;;;;;;5071144;28;20048;-55
2022/01/02 06:45:46;;;;;;;13.30;4.22;;;11.60;99.90;;;;;;5065375;28;20044;-57
2022/01/02 06:48:12;;;;;;;17.85;5.57;;;11.60;99.90;;;;;;5072072;28;20036;-56
2022/01/02 06:50:39;;;;;;;12.82;4.90;;;11.50;99.90;;;;;;5069343;28;20036;-56
2022/01/02 06:53:05;;;;;;;13.00;4.90;;;11.50;99.90;;;;;;5070315;28;20036;-55
2022/01/02 06:55:31;;;;;;;10.38;4.40;;;11.50;99.90;;;;;;5070543;28;20052;-55
2022/01/02 06:57:56;;;;;;;13.27;4.95;;;11.50;99.90;;;;;;5074147;28;20455;-58
2022/01/02 07:00:22;;;;;;;12.27;4.82;;;11.50;99.90;;;;;;5073952;28;20522;-54
2022/01/02 07:02:48;;;;;;;9.57;5.18;;;11.50;99.90;;;;;;5069056;28;20036;-56
2022/01/02 07:05:13;;;;;;;11.10;5.00;;;11.50;99.90;;;;;;5072865;28;20036;-55
2022/01/02 07:07:44;;;;;;;11.85;4.93;;;11.40;99.90;;;;;;5064609;28;20048;-55
2022/01/02 07:10:11;;;;;;;14.18;5.07;;;11.40;99.90;;;;;;5071013;28;20182;-56
2022/01/02 07:12:37;;;;;;;10.05;4.88;;;11.40;99.90;;;;;;5073686;28;20049;-56
2022/01/02 07:15:04;;;;;;;10.15;4.82;;;11.40;99.90;;;;;;5070600;28;20082;-56
2022/01/02 07:17:30;;;;;;;12.75;5.13;;;11.40;99.90;;;;;;5064298;28;20035;-54
2022/01/02 07:19:55;;;;;;;10.40;5.10;;;11.40;99.90;;;;;;5070200;28;20032;-58
2022/01/02 07:22:21;;;;;;;12.90;4.80;;;11.30;99.90;;;;;;5071730;28;20178;-56
2022/01/02 07:24:51;;;;;;;10.48;4.88;;;11.30;99.90;;;;;;5073375;28;20083;-56
2022/01/02 07:27:20;;;;;;;14.52;5.15;;;11.30;99.90;;;;;;5069479;28;20060;-56
2022/01/02 07:29:47;;;;;;;11.95;4.72;;;11.30;99.90;;;;;;5076832;28;20114;-55
2022/01/02 07:32:13;;;;;;;8.77;4.53;;;11.30;99.90;;;;;;5075279;28;20075;-56
2022/01/02 07:34:39;;;;;;;14.80;5.25;;;11.30;99.90;;;;;;5070358;28;20047;-57
2022/01/02 07:37:04;;;;;;;12.68;4.72;;;11.30;99.90;;;;;;5072768;28;20033;-55
2022/01/02 07:39:30;;;;;;;11.85;4.93;;;11.30;99.90;;;;;;5069972;28;20124;-55
2022/01/02 07:41:56;;;;;;;9.68;4.57;;;11.30;99.90;;;;;;5073511;28;20049;-57
2022/01/02 07:44:21;;;;;;;10.52;4.53;;;11.30;99.90;;;;;;5068742;28;20060;-56
2022/01/02 07:46:47;;;;;;;10.02;4.40;;;11.30;99.90;;;;;;5064590;28;20064;-56
2022/01/02 07:49:13;;;;;;;7.85;4.40;;;11.30;99.90;;;;;;5072624;28;20045;-56
2022/01/02 07:51:38;;;;;;;9.00;4.75;;;11.20;99.90;;;;;;5072208;28;20040;-56
2022/01/02 07:54:04;;;;;;;10.77;4.60;;;11.30;99.90;;;;;;5073995;28;20049;-56
2022/01/02 07:56:29;;;;;;;9.32;4.45;;;11.30;99.90;;;;;;5074241;28;20048;-56
2022/01/02 07:58:59;;;;;;;11.75;4.43;;;11.30;99.90;;;;;;5072624;28;20517;-56
2022/01/02 08:01:25;;;;;;;9.60;4.18;;;11.30;99.90;;;;;;5077248;28;20049;-57
2022/01/02 08:03:51;;;;;;;11.10;4.40;;;11.40;99.90;;;;;;5068346;28;20037;-57
2022/01/02 08:06:17;;;;;;;11.63;4.82;;;11.40;99.90;;;;;;5070708;28;20041;-56
2022/01/02 08:08:42;;;;;;;7.35;4.65;;;11.40;99.90;;;;;;5064890;28;20181;-56
2022/01/02 08:11:08;;;;;;;10.57;4.70;;;11.30;99.90;;;;;;5073420;28;20052;-57
2022/01/02 08:13:34;;;;;;;10.13;4.45;;;11.30;99.90;;;;;;5068113;28;20049;-57
2022/01/02 08:15:59;;;;;;;10.48;4.20;;;11.30;99.90;;;;;;5073139;28;20052;-55
2022/01/02 08:18:25;;;;;;;7.88;4.38;;;11.30;99.90;;;;;;5069880;28;20413;-56
2022/01/02 08:20:50;;;;;;;7.90;4.32;;;11.30;99.90;;;;;;5071488;28;20563;-55
2022/01/02 08:23:16;;;;;;;11.98;4.30;;;11.30;99.90;;;;;;5064931;28;21206;-56
2022/01/02 08:25:42;;;;;;;10.27;4.40;;;11.30;99.90;;;;;;5068835;28;20041;-55
2022/01/02 08:28:08;;;;;;;10.52;4.68;;;11.20;99.90;;;;;;5066648;28;20155;-56
2022/01/02 08:30:34;;;;;;;13.32;4.63;;;11.20;99.90;;;;;;5062989;28;20399;-56
2022/01/02 08:32:59;;;;;;;10.55;4.50;;;11.20;99.90;;;;;;5064614;28;20053;-56
2022/01/02 08:35:25;;;;;;;9.88;4.38;;;11.20;99.90;;;;;;5062363;28;20036;-56
2022/01/02 08:37:51;;;;;;;11.73;4.13;;;11.20;99.90;;;;;;5064940;28;20262;-55
2022/01/02 08:40:16;;;;;;;11.43;5.03;;;11.20;99.90;;;;;;5060597;28;20040;-54
2022/01/02 08:42:42;;;;;;;9.82;4.45;;;11.20;99.90;;;;;;5060249;28;20479;-54
2022/01/02 08:45:08;;;;;;;11.35;4.25;;;11.20;99.90;;;;;;5064836;28;20502;-55
2022/01/02 08:47:34;;;;;;;9.50;4.25;;;11.30;99.90;;;;;;5060237;28;20124;-55
2022/01/02 08:49:59;;;;;;;11.38;4.60;;;11.30;99.90;;;;;;5071168;28;20115;-55
2022/01/02 08:52:25;;;;;;;8.75;4.20;;;11.30;99.90;;;;;;5063245;28;20033;-55
2022/01/02 08:54:51;;;;;;;10.00;3.90;;;11.30;99.90;;;;;;5062572;28;20068;-55
2022/01/02 08:57:17;;;;;;;7.75;4.28;;;11.30;99.90;;;;;;5063638;28;20126;-55
2022/01/02 08:59:42;;;;;;;10.00;5.30;;;11.30;99.90;;;;;;5067317;28;20194;-54
2022/01/02 09:02:08;;;;;;;12.98;4.40;;;11.30;99.90;;;;;;5063791;28;20075;-56
2022/01/02 09:04:34;;;;;;;11.55;5.05;;;11.20;99.90;;;;;;5070821;28;20040;-56
2022/01/02 09:07:01;;;;;;;9.27;4.22;;;11.20;99.90;;;;;;5072058;28;20041;-55
2022/01/02 09:09:27;;;;;;;12.38;4.60;;;11.20;99.90;;;;;;5074179;28;20052;-56
2022/01/02 09:11:52;;;;;;;9.52;4.95;;;11.10;99.90;;;;;;5075016;28;20067;-55
2022/01/02 09:14:19;;;;;;;12.60;4.70;;;11.10;99.90;;;;;;5075538;28;20057;-57
2022/01/02 09:16:44;;;;;;;8.07;4.43;;;11.10;99.90;;;;;;5069595;28;20528;-55
2022/01/02 09:19:11;;;;;;;7.25;4.35;;;11.10;99.90;;;;;;5071730;28;20041;-56
2022/01/02 09:21:36;;;;;;;8.75;4.80;;;11.10;99.90;;;;;;5071807;28;20044;-56
2022/01/02 09:24:03;;;;;;;12.73;4.75;;;11.10;99.90;;;;;;5073840;28;20769;-56
2022/01/02 09:26:28;;;;;;;11.10;4.60;;;11.10;99.90;;;;;;5069254;28;20045;-56
2022/01/02 09:28:54;;;;;;;11.20;4.57;;;11.10;99.90;;;;;;5068678;28;20052;-56
2022/01/02 09:31:19;;;;;;;10.02;4.97;;;11.20;99.90;;;;;;5073115;28;20059;-56
2022/01/02 09:33:45;;;;;;;12.60;4.50;;;11.20;99.90;;;;;;5069143;28;20044;-57
2022/01/02 09:36:10;;;;;;;11.43;4.30;;;11.20;99.90;;;;;;5070321;28;20071;-56
2022/01/02 09:38:36;;;;;;;10.00;4.28;;;11.20;99.90;;;;;;5072943;28;20090;-56
2022/01/02 09:41:02;;;;;;;11.15;4.47;;;11.20;99.90;;;;;;5071633;28;20052;-57
2022/01/02 09:43:27;;;;;;;10.45;4.95;;;11.20;99.90;;;;;;5068885;28;20045;-57
2022/01/02 09:45:54;;;;;;;10.02;4.30;;;11.20;99.90;;;;;;5070062;28;20128;-56
2022/01/02 09:48:19;;;;;;;8.82;4.20;;;11.20;99.90;;;;;;5073454;28;20056;-56
2022/01/02 09:50:47;;;;;;;7.88;4.40;;;11.20;99.90;;;;;;5071752;28;20040;-57
2022/01/02 09:53:13;;;;;;;8.13;4.32;;;11.20;99.90;;;;;;5074736;28;20041;-56
2022/01/02 09:55:39;;;;;;;14.13;4.25;;;11.20;99.90;;;;;;5066390;28;20047;-56
2022/01/02 09:58:10;;;;;;;10.40;4.43;;;11.30;99.90;;;;;;5070885;28;20037;-56
2022/01/02 10:00:38;;;;;;;9.70;4.55;;;11.30;99.90;;;;;;5069179;28;20076;-56
2022/01/02 10:03:09;;;;;;;10.40;4.50;;;11.30;99.90;;;;;;5066662;28;20048;-56
2022/01/02 10:05:59;;;;;;;9.48;4.38;;;11.30;99.90;;;;;;5076068;28;20118;-55
2022/01/02 10:08:35;;;;;;;11.77;4.53;;;11.30;99.90;;;;;;5062880;28;20592;-56
2022/01/02 10:11:15;;;;;;;8.63;4.65;;;11.30;99.90;;;;;;5067404;28;20033;-55
2022/01/02 10:13:50;;;;;;;10.63;4.60;;;11.30;99.90;;;;;;5068423;28;20045;-56
2022/01/02 10:16:38;;;;;;;7.78;4.43;;;11.40;99.90;;;;;;5065834;28;20041;-55
2022/01/02 10:19:31;;;;;;;7.85;4.40;;;11.40;99.90;;;;;;5078734;28;20075;-56
2022/01/02 10:22:00;;;;;;;9.57;4.45;;;11.50;99.90;;;;;;5073861;28;20114;-56
2022/01/02 10:24:27;;;;;;;;;;;11.60;99.90;;;;;;5063573;28;20514;-55
2022/01/02 10:27:19;;;;;;;10.73;4.80;;;11.60;99.90;;;;;;5064091;28;19921;-57
2022/01/02 10:29:55;;;;;;;8.02;4.22;;;11.60;99.90;;;;;;5075808;28;20037;-56
2022/01/02 10:32:35;;;;;;;6.38;4.28;;;11.60;99.90;;;;;;5075680;28;20128;-56
2022/01/02 10:35:12;;;;;;;11.80;4.78;;;11.70;99.90;;;;;;5072122;28;20049;-57
2022/01/02 10:37:38;;;;;;;6.97;4.68;;;11.80;99.90;;;;;;5062286;28;20067;-57
2022/01/02 10:40:05;;;;;;;8.75;4.60;;;11.90;99.90;;;;;;5069728;28;20461;-56
2022/01/02 10:42:41;;;;;;;11.25;4.80;;;11.90;99.90;;;;;;5071558;28;20082;-57
2022/01/02 10:45:07;;;;;;;8.70;4.63;;;11.90;99.90;;;;;;5071264;28;20553;-56
2022/01/02 10:47:33;;;;;;;6.53;4.25;;;11.90;99.90;;;;;;5069171;28;20049;-56
2022/01/02 10:50:03;;;;;;;8.27;4.90;;;11.90;99.90;;;;;;5068229;28;20558;-56
2022/01/02 10:52:34;;;;;;;9.13;4.82;;;11.90;99.90;;;;;;5072945;28;20055;-56
2022/01/02 10:55:05;;;;;;;9.20;4.90;;;11.80;99.90;;;;;;5060096;28;20388;-57
2022/01/02 10:57:31;;;;;;;8.13;4.53;;;11.80;99.90;;;;;;5065977;28;20045;-57
2022/01/02 10:59:58;;;;;;;7.68;4.30;;;11.90;99.90;;;;;;5073128;28;20075;-57
2022/01/02 11:02:26;;;;;;;7.45;4.60;;;11.90;99.90;;;;;;5073077;28;20036;-55
2022/01/02 11:05:06;;;;;;;12.00;4.72;;;11.90;99.90;;;;;;5075331;28;20041;-57
2022/01/02 11:07:47;;;;;;;9.50;5.00;;;11.90;99.90;;;;;;5071754;28;20127;-56
2022/01/02 11:10:15;;;;;;;12.80;5.25;;;12.00;99.90;;;;;;5074665;28;20029;-57
2022/01/02 11:12:43;;;;;;;9.93;4.65;;;12.00;99.90;;;;;;5064544;28;20144;-56
2022/01/02 11:15:11;;;;;;;9.82;4.88;;;11.90;99.90;;;;;;5071042;28;20048;-57
2022/01/02 11:17:37;;;;;;;8.70;4.90;;;11.90;99.90;;;;;;5066496;28;20040;-57
2022/01/02 11:20:14;;;;;;;9.80;5.20;;;11.90;99.90;;;;;;5075747;28;20060;-57
2022/01/02 11:23:01;;;;;;;9.23;5.07;;;11.80;99.90;;;;;;5064868;28;20039;-57
2022/01/02 11:25:42;;;;;;;10.80;5.32;;;11.80;99.90;;;;;;5074314;28;20044;-57
2022/01/02 11:28:25;;;;;;;10.88;5.63;;;11.90;99.90;;;;;;5061209;28;20397;-56
2022/01/02 11:30:53;;;;;;;8.10;4.75;;;11.80;99.90;;;;;;5067467;28;20060;-57
2022/01/02 11:33:27;;;;;;;9.73;4.90;;;11.80;99.90;;;;;;5065965;28;20486;-56
2022/01/02 11:35:53;;;;;;;13.40;5.38;;;11.80;99.90;;;;;;5061687;28;20048;-56
2022/01/02 11:38:21;;;;;;;8.45;4.50;;;11.90;99.90;;;;;;5065692;28;20041;-57
2022/01/02 11:40:52;;;;;;;9.32;5.03;;;11.80;99.90;;;;;;5074331;28;20055;-56
2022/01/02 11:43:35;;;;;;;10.82;4.97;;;11.80;99.90;;;;;;5065658;28;20048;-57
2022/01/02 11:46:22;;;;;;;9.38;4.70;;;11.90;99.90;;;;;;5065498;28;20047;-56
2022/01/02 11:49:15;;;;;;;9.32;5.30;;;11.80;99.90;;;;;;5065882;28;20048;-57
2022/01/02 11:51:47;;;;;;;11.60;5.20;;;11.80;99.90;;;;;;5062491;28;20045;-57
2022/01/02 11:54:28;;;;;;;8.93;4.82;;;11.80;99.90;;;;;;5068855;28;20406;-57
2022/01/02 11:56:54;;;;;;;8.52;4.63;;;11.70;99.90;;;;;;5069765;28;20059;-56
2022/01/02 11:59:38;;;;;;;9.60;5.10;;;11.70;99.90;;;;;;5060883;28;20102;-56
2022/01/02 12:02:30;;;;;;;11.27;4.88;;;11.70;99.90;;;;;;5064677;28;20041;-57
2022/01/02 12:05:03;;;;;;;8.93;5.20;;;11.60;99.90;;;;;;5055164;28;20064;-56
2022/01/02 12:07:34;;;;;;;7.63;4.85;;;11.60;99.90;;;;;;5061382;28;20407;-57
2022/01/02 12:10:15;;;;;;;8.77;5.05;;;11.60;99.90;;;;;;5070174;28;20094;-57
2022/01/02 12:12:59;;;;;;;10.05;4.88;;;11.60;99.90;;;;;;5065167;28;20045;-57
2022/01/02 12:15:30;;;;;;;7.97;4.85;;;11.70;99.90;;;;;;5065561;28;20450;-56
2022/01/02 12:18:17;;;;;;;8.43;4.75;;;11.70;99.90;;;;;;5061170;28;20060;-57
2022/01/02 12:21:00;;;;;;;8.35;4.97;;;11.70;99.90;;;;;;5066925;28;20047;-57
2022/01/02 12:23:41;;;;;;;8.68;4.80;;;11.70;99.90;;;;;;5065389;28;20048;-56
2022/01/02 12:26:21;;;;;;;10.88;5.18;;;11.70;99.90;;;;;;5061721;28;20052;-57
2022/01/02 12:28:57;;;;;;;11.55;5.80;;;11.70;99.90;;;;;;5068397;28;20036;-56
2022/01/02 12:31:28;;;;;;;10.75;4.80;;;11.80;99.90;;;;;;5062260;28;20040;-55
2022/01/02 12:33:58;;;;;;;8.30;4.18;;;11.80;99.90;;;;;;5068991;28;20037;-56
2022/01/02 12:36:24;;;;;;;9.55;4.72;;;11.80;99.90;;;;;;5063166;28;20045;-57
2022/01/02 12:38:55;;;;;;;8.10;4.20;;;11.90;99.90;;;;;;5062634;28;20139;-56
2022/01/02 12:41:26;;;;;;;10.85;4.63;;;11.80;99.90;;;;;;5067474;28;20048;-56
2022/01/02 12:43:58;;;;;;;11.00;4.38;;;11.80;99.90;;;;;;5071448;28;20041;-57
2022/01/02 12:46:47;;;;;;;9.02;3.72;;;11.90;99.90;;;;;;5070289;28;20045;-57
2022/01/02 12:49:15;;;;;;;8.93;3.60;;;11.80;99.90;;;;;;5063225;28;20049;-57
2022/01/02 12:51:43;;;;;;;8.52;3.80;;;11.80;99.90;;;;;;5069693;28;20049;-58
2022/01/02 12:54:12;;;;;;;7.20;3.70;;;11.70;99.90;;;;;;5065581;28;20079;-57